Time,TemperatureF,DewpointF,PressureIn,WindDirection,WindDirectionDegrees,WindSpeedMPH,WindSpeedGustMPH,Humidity,HourlyPrecipIn,Conditions,Clouds,dailyrainin,SoftwareType,DateUTC
2013-07-04 00:02:00,77.0,38.0,27.81,NW,315,10.0,26.0,25,0.00,,,0.00,,2013-07-04 07:02:00,
2013-07-04 00:11:00,76.0,38.0,27.81,West,280,12.0,23.0,25,0.00,,,0.00,,2013-07-04 07:11:00,
2013-07-04 00:21:00,76.0,38.0,27.81,West,280,12.0,23.0,25,0.00,,,0.00,,2013-07-04 07:21:00,
2013-07-04 00:34:00,76.0,39.0,27.81,West,276,15.0,25.0,26,0.00,,,0.00,,2013-07-04 07:34:00,
2013-07-04 00:52:00,76.0,41.0,27.80,WNW,302,16.0,30.0,28,0.00,,,0.00,,2013-07-04 07:52:00,
2013-07-04 01:02:00,75.0,41.0,27.80,WNW,299,15.0,28.0,29,0.00,,,0.00,,2013-07-04 08:02:00,
2013-07-04 01:11:00,75.0,42.0,27.80,WNW,289,14.0,22.0,31,0.00,,,0.00,,2013-07-04 08:11:00,
2013-07-04 01:21:00,75.0,42.0,27.80,WNW,289,14.0,22.0,31,0.00,,,0.00,,2013-07-04 08:21:00,
2013-07-04 01:33:00,75.0,43.0,27.81,NW,313,14.0,25.0,32,0.00,,,0.00,,2013-07-04 08:33:00,
2013-07-04 01:42:00,74.0,43.0,27.81,NW,311,13.0,21.0,33,0.00,,,0.00,,2013-07-04 08:42:00,
2013-07-04 01:52:00,74.0,43.0,27.81,NW,311,13.0,21.0,33,0.00,,,0.00,,2013-07-04 08:52:00,
2013-07-04 02:02:00,74.0,44.0,27.81,West,266,14.0,20.0,34,0.00,,,0.00,,2013-07-04 09:02:00,
2013-07-04 02:11:00,74.0,44.0,27.81,West,266,14.0,20.0,34,0.00,,,0.00,,2013-07-04 09:11:00,
2013-07-04 02:22:00,74.0,44.0,27.81,WNW,288,11.0,27.0,34,0.00,,,0.00,,2013-07-04 09:22:00,
2013-07-04 02:32:00,74.0,45.0,27.81,NW,321,13.0,24.0,35,0.00,,,0.00,,2013-07-04 09:32:00,
2013-07-04 02:42:00,73.0,44.0,27.81,NW,312,11.0,24.0,35,0.00,,,0.00,,2013-07-04 09:42:00,
2013-07-04 02:52:00,73.0,44.0,27.81,NW,312,11.0,24.0,35,0.00,,,0.00,,2013-07-04 09:52:00,
2013-07-04 03:01:00,73.0,44.0,27.81,WNW,298,8.0,20.0,36,0.00,,,0.00,,2013-07-04 10:01:00,
2013-07-04 03:11:00,73.0,45.0,27.82,West,281,9.0,21.0,37,0.00,,,0.00,,2013-07-04 10:11:00,
2013-07-04 03:22:00,73.0,45.0,27.82,West,281,9.0,21.0,37,0.00,,,0.00,,2013-07-04 10:22:00,
2013-07-04 03:33:00,72.0,45.0,27.81,WNW,285,7.0,16.0,38,0.00,,,0.00,,2013-07-04 10:33:00,
2013-07-04 03:42:00,72.0,46.0,27.81,NW,323,8.0,17.0,39,0.00,,,0.00,,2013-07-04 10:42:00,
2013-07-04 03:53:00,72.0,46.0,27.81,NW,323,8.0,17.0,39,0.00,,,0.00,,2013-07-04 10:53:00,
2013-07-04 04:02:00,72.0,45.0,27.81,NW,305,9.0,18.0,38,0.00,,,0.00,,2013-07-04 11:02:00,
2013-07-04 04:11:00,72.0,44.0,27.81,NW,321,10.0,21.0,37,0.00,,,0.00,,2013-07-04 11:11:00,
2013-07-04 04:22:00,72.0,44.0,27.81,NW,321,10.0,21.0,37,0.00,,,0.00,,2013-07-04 11:22:00,
2013-07-04 04:33:00,72.0,44.0,27.80,NW,305,12.0,21.0,37,0.00,,,0.00,,2013-07-04 11:33:00,
2013-07-04 04:43:00,72.0,44.0,27.80,WNW,285,12.0,23.0,37,0.00,,,0.00,,2013-07-04 11:43:00,
2013-07-04 04:53:00,72.0,44.0,27.80,WNW,285,12.0,23.0,37,0.00,,,0.00,,2013-07-04 11:53:00,
2013-07-04 05:01:00,71.0,44.0,27.81,WNW,287,11.0,20.0,38,0.00,,,0.00,,2013-07-04 12:01:00,
2013-07-04 05:11:00,71.0,43.0,27.81,WNW,300,12.0,21.0,37,0.00,,,0.00,,2013-07-04 12:11:00,
2013-07-04 05:22:00,71.0,43.0,27.81,WNW,300,12.0,21.0,37,0.00,,,0.00,,2013-07-04 12:22:00,
2013-07-04 05:33:00,71.0,43.0,27.81,WNW,300,12.0,21.0,37,0.00,,,0.00,,2013-07-04 12:33:00,
2013-07-04 05:43:00,71.0,43.0,27.81,NW,307,6.0,18.0,37,0.00,,,0.00,,2013-07-04 12:43:00,
2013-07-04 05:52:00,71.0,43.0,27.81,NW,307,6.0,18.0,37,0.00,,,0.00,,2013-07-04 12:52:00,
2013-07-04 06:11:00,70.0,43.0,27.82,NW,319,8.0,17.0,38,0.00,,,0.00,,2013-07-04 13:11:00,
2013-07-04 06:22:00,71.0,43.0,27.82,NW,316,4.0,23.0,36,0.00,,,0.00,,2013-07-04 13:22:00,
2013-07-04 06:53:00,70.0,43.0,27.82,NNW,338,6.0,12.0,37,0.00,,,0.00,,2013-07-04 13:53:00,
2013-07-04 07:02:00,71.0,40.0,27.83,NW,313,9.0,16.0,33,0.00,,,0.00,,2013-07-04 14:02:00,
2013-07-04 07:11:00,71.0,40.0,27.83,NW,313,9.0,16.0,33,0.00,,,0.00,,2013-07-04 14:11:00,
2013-07-04 07:33:00,71.0,43.0,27.83,NW,311,4.0,15.0,37,0.00,,,0.00,,2013-07-04 14:33:00,
2013-07-04 07:53:00,72.0,41.0,27.83,WNW,293,6.0,21.0,32,0.00,,,0.00,,2013-07-04 14:53:00,
2013-07-04 08:11:00,72.0,36.0,27.83,NNW,327,10.0,21.0,27,0.00,,,0.00,,2013-07-04 15:11:00,
2013-07-04 08:23:00,73.0,39.0,27.83,NW,323,6.0,14.0,29,0.00,,,0.00,,2013-07-04 15:23:00,
2013-07-04 08:33:00,74.0,38.0,27.84,NW,312,6.0,18.0,27,0.00,,,0.00,,2013-07-04 15:33:00,
2013-07-04 08:43:00,75.0,38.0,27.90,NW,305,10.0,20.0,26,0.00,,,0.00,,2013-07-04 15:43:00,
2013-07-04 08:52:00,74.0,37.0,27.83,NW,316,11.0,22.0,26,0.00,,,0.00,,2013-07-04 15:52:00,
2013-07-04 09:02:00,75.0,37.0,27.83,SW,233,10.0,18.0,25,0.00,,,0.00,,2013-07-04 16:02:00,
2013-07-04 09:11:00,76.0,39.0,27.90,WNW,295,9.0,26.0,26,0.00,,,0.00,,2013-07-04 16:11:00,
2013-07-04 09:22:00,76.0,38.0,27.83,NW,308,12.0,21.0,25,0.00,,,0.00,,2013-07-04 16:22:00,
2013-07-04 09:33:00,76.0,38.0,27.83,NW,315,13.0,26.0,25,0.00,,,0.00,,2013-07-04 16:33:00,
2013-07-04 09:52:00,77.0,38.0,27.83,WNW,298,8.0,18.0,25,0.00,,,0.00,,2013-07-04 16:52:00,
2013-07-04 10:01:00,78.0,39.0,27.82,WNW,295,8.0,16.0,25,0.00,,,0.00,,2013-07-04 17:01:00,
2013-07-04 10:11:00,78.0,39.0,27.89,NW,310,10.0,17.0,25,0.00,,,0.00,,2013-07-04 17:11:00,
2013-07-04 10:22:00,78.0,39.0,27.82,WNW,293,10.0,24.0,25,0.00,,,0.00,,2013-07-04 17:22:00,
2013-07-04 10:33:00,79.0,40.0,27.82,NNW,331,8.0,23.0,25,0.00,,,0.00,,2013-07-04 17:33:00,
2013-07-04 10:43:00,79.0,39.0,27.88,West,276,11.0,20.0,24,0.00,,,0.00,,2013-07-04 17:43:00,
2013-07-04 10:53:00,79.0,39.0,27.82,WNW,293,11.0,18.0,24,0.00,,,0.00,,2013-07-04 17:53:00,
2013-07-04 11:01:00,80.0,40.0,27.81,WNW,297,9.0,24.0,24,0.00,,,0.00,,2013-07-04 18:01:00,
2013-07-04 11:11:00,80.0,40.0,27.81,WNW,297,9.0,24.0,24,0.00,,,0.00,,2013-07-04 18:11:00,
2013-07-04 11:22:00,80.0,38.0,27.81,WNW,297,12.0,20.0,22,0.00,,,0.00,,2013-07-04 18:22:00,
2013-07-04 11:33:00,80.0,38.0,27.81,NW,309,11.0,19.0,22,0.00,,,0.00,,2013-07-04 18:33:00,
2013-07-04 11:43:00,81.0,39.0,27.87,West,281,11.0,19.0,22,0.00,,,0.00,,2013-07-04 18:43:00,
2013-07-04 11:52:00,81.0,40.0,27.81,WNW,300,9.0,23.0,23,0.00,,,0.00,,2013-07-04 18:52:00,
2013-07-04 12:01:00,81.0,39.0,27.80,WNW,290,8.0,18.0,22,0.00,,,0.00,,2013-07-04 19:01:00,
2013-07-04 12:11:00,82.0,38.0,27.86,WNW,288,9.0,15.0,21,0.00,,,0.00,,2013-07-04 19:11:00,
2013-07-04 12:22:00,82.0,38.0,27.80,NW,309,9.0,17.0,21,0.00,,,0.00,,2013-07-04 19:22:00,
2013-07-04 12:33:00,82.0,38.0,27.80,NW,309,9.0,17.0,21,0.00,,,0.00,,2013-07-04 19:33:00,
2013-07-04 12:53:00,83.0,39.0,27.79,WNW,293,9.0,22.0,21,0.00,,,0.00,,2013-07-04 19:53:00,
2013-07-04 13:01:00,83.0,39.0,27.79,WNW,293,7.0,19.0,21,0.00,,,0.00,,2013-07-04 20:01:00,
2013-07-04 13:11:00,84.0,40.0,27.85,West,262,8.0,16.0,21,0.00,,,0.00,,2013-07-04 20:11:00,
2013-07-04 13:22:00,84.0,40.0,27.79,West,273,9.0,17.0,21,0.00,,,0.00,,2013-07-04 20:22:00,
2013-07-04 13:33:00,84.0,41.0,27.78,WNW,290,8.0,21.0,22,0.00,,,0.00,,2013-07-04 20:33:00,
2013-07-04 13:42:00,85.0,42.0,27.84,WNW,285,8.0,16.0,22,0.00,,,0.00,,2013-07-04 20:42:00,
2013-07-04 13:53:00,84.0,40.0,27.78,NW,311,12.0,19.0,21,0.00,,,0.00,,2013-07-04 20:53:00,
2013-07-04 14:01:00,84.0,42.0,27.78,NW,319,7.0,17.0,23,0.00,,,0.00,,2013-07-04 21:01:00,
2013-07-04 14:11:00,85.0,42.0,27.83,NW,316,12.0,23.0,22,0.00,,,0.00,,2013-07-04 21:11:00,
2013-07-04 14:22:00,85.0,42.0,27.77,WNW,297,9.0,23.0,22,0.00,,,0.00,,2013-07-04 21:22:00,
2013-07-04 14:32:00,85.0,42.0,27.76,West,269,8.0,24.0,22,0.00,,,0.00,,2013-07-04 21:32:00,
2013-07-04 14:42:00,85.0,41.0,27.83,NW,326,13.0,22.0,21,0.00,,,0.00,,2013-07-04 21:42:00,
2013-07-04 14:52:00,85.0,41.0,27.76,NW,307,9.0,19.0,21,0.00,,,0.00,,2013-07-04 21:52:00,
2013-07-04 15:01:00,85.0,42.0,27.76,WNW,297,10.0,19.0,22,0.00,,,0.00,,2013-07-04 22:01:00,
2013-07-04 15:11:00,85.0,41.0,27.82,WNW,287,10.0,21.0,21,0.00,,,0.00,,2013-07-04 22:11:00,
2013-07-04 15:22:00,85.0,41.0,27.76,West,262,7.0,21.0,21,0.00,,,0.00,,2013-07-04 22:22:00,
2013-07-04 15:33:00,84.0,40.0,27.75,NW,323,11.0,28.0,21,0.00,,,0.00,,2013-07-04 22:33:00,
2013-07-04 15:43:00,85.0,41.0,27.81,West,269,8.0,23.0,21,0.00,,,0.00,,2013-07-04 22:43:00,
2013-07-04 15:52:00,85.0,41.0,27.75,NNW,329,14.0,24.0,21,0.00,,,0.00,,2013-07-04 22:52:00,
2013-07-04 16:01:00,85.0,41.0,27.74,WSW,252,14.0,23.0,21,0.00,,,0.00,,2013-07-04 23:01:00,
2013-07-04 16:11:00,85.0,39.0,27.81,NW,305,14.0,26.0,20,0.00,,,0.00,,2013-07-04 23:11:00,
2013-07-04 16:23:00,84.0,39.0,27.74,SW,230,13.0,23.0,20,0.00,,,0.00,,2013-07-04 23:23:00,
2013-07-04 16:33:00,85.0,38.0,27.74,WNW,289,15.0,26.0,19,0.00,,,0.00,,2013-07-04 23:33:00,
2013-07-04 16:42:00,85.0,41.0,27.80,WNW,299,12.0,24.0,21,0.00,,,0.00,,2013-07-04 23:42:00,
2013-07-04 16:52:00,84.0,37.0,27.73,NNW,334,15.0,26.0,19,0.00,,,0.00,,2013-07-04 23:52:00,
2013-07-04 17:01:00,84.0,39.0,27.73,WNW,282,12.0,28.0,20,0.00,,,0.00,,2013-07-05 00:01:00,
2013-07-04 17:11:00,84.0,39.0,27.73,WNW,282,12.0,28.0,20,0.00,,,0.00,,2013-07-05 00:11:00,
2013-07-04 17:21:00,84.0,37.0,27.80,NNW,330,16.0,26.0,19,0.00,,,0.00,,2013-07-05 00:21:00,
2013-07-04 17:32:00,84.0,39.0,27.73,WNW,284,18.0,26.0,20,0.00,,,0.00,,2013-07-05 00:32:00,
2013-07-04 17:43:00,84.0,39.0,27.79,WNW,298,16.0,26.0,20,0.00,,,0.00,,2013-07-05 00:43:00,
2013-07-04 17:52:00,83.0,38.0,27.73,West,276,14.0,27.0,20,0.00,,,0.00,,2013-07-05 00:52:00,
2013-07-04 18:01:00,83.0,38.0,27.73,West,276,14.0,27.0,20,0.00,,,0.00,,2013-07-05 01:01:00,
2013-07-04 18:11:00,83.0,38.0,27.73,West,276,14.0,27.0,20,0.00,,,0.00,,2013-07-05 01:11:00,
2013-07-04 18:21:00,83.0,39.0,27.72,NW,314,16.0,25.0,21,0.00,,,0.00,,2013-07-05 01:21:00,
2013-07-04 18:32:00,83.0,39.0,27.72,NW,314,16.0,25.0,21,0.00,,,0.00,,2013-07-05 01:32:00,
2013-07-04 18:42:00,83.0,39.0,27.72,NW,314,16.0,25.0,21,0.00,,,0.00,,2013-07-05 01:42:00,
2013-07-04 18:52:00,81.0,42.0,27.72,West,278,17.0,32.0,25,0.00,,,0.00,,2013-07-05 01:52:00,
2013-07-04 19:02:00,81.0,42.0,27.72,West,278,17.0,32.0,25,0.00,,,0.00,,2013-07-05 02:02:00,
2013-07-04 19:11:00,81.0,42.0,27.71,West,262,21.0,34.0,25,0.00,,,0.00,,2013-07-05 02:11:00,
2013-07-04 19:21:00,81.0,42.0,27.71,West,262,21.0,34.0,25,0.00,,,0.00,,2013-07-05 02:21:00,
2013-07-04 19:32:00,81.0,42.0,27.71,West,262,21.0,34.0,25,0.00,,,0.00,,2013-07-05 02:32:00,
2013-07-04 19:42:00,81.0,42.0,27.71,West,262,21.0,34.0,25,0.00,,,0.00,,2013-07-05 02:42:00,
2013-07-04 19:52:00,80.0,43.0,27.73,NW,321,17.0,31.0,27,0.00,,,0.00,,2013-07-05 02:52:00,
2013-07-04 20:02:00,80.0,43.0,27.73,NW,321,17.0,31.0,27,0.00,,,0.00,,2013-07-05 03:02:00,
2013-07-04 20:11:00,80.0,43.0,27.73,NW,321,17.0,31.0,27,0.00,,,0.00,,2013-07-05 03:11:00,
2013-07-04 20:21:00,78.0,44.0,27.73,NW,309,20.0,33.0,30,0.00,,,0.00,,2013-07-05 03:21:00,
2013-07-04 20:32:00,78.0,44.0,27.73,NW,309,20.0,33.0,30,0.00,,,0.00,,2013-07-05 03:32:00,
2013-07-04 20:42:00,78.0,44.0,27.73,NW,309,20.0,33.0,30,0.00,,,0.00,,2013-07-05 03:42:00,
2013-07-04 20:52:00,75.0,45.0,27.73,NW,307,20.0,31.0,35,0.00,,,0.00,,2013-07-05 03:52:00,
2013-07-04 21:01:00,75.0,45.0,27.73,NW,307,20.0,31.0,35,0.00,,,0.00,,2013-07-05 04:01:00,
2013-07-04 21:11:00,75.0,45.0,27.73,NW,307,20.0,31.0,35,0.00,,,0.00,,2013-07-05 04:11:00,
2013-07-04 21:21:00,74.0,45.0,27.74,NW,304,21.0,35.0,35,0.00,,,0.00,,2013-07-05 04:21:00,
2013-07-04 21:33:00,74.0,45.0,27.74,NW,304,21.0,35.0,35,0.00,,,0.00,,2013-07-05 04:33:00,
2013-07-04 21:43:00,74.0,45.0,27.74,NW,304,21.0,35.0,35,0.00,,,0.00,,2013-07-05 04:43:00,
2013-07-04 21:53:00,73.0,46.0,27.75,WNW,297,20.0,36.0,38,0.00,,,0.00,,2013-07-05 04:53:00,
2013-07-04 22:01:00,73.0,46.0,27.75,WNW,297,20.0,36.0,38,0.00,,,0.00,,2013-07-05 05:01:00,
2013-07-04 22:12:00,72.0,46.0,27.76,NW,307,20.0,32.0,39,0.00,,,0.00,,2013-07-05 05:12:00,
2013-07-04 22:21:00,72.0,46.0,27.76,NW,307,20.0,32.0,39,0.00,,,0.00,,2013-07-05 05:21:00,
2013-07-04 22:33:00,71.0,45.0,27.77,NW,310,19.0,35.0,40,0.00,,,0.00,,2013-07-05 05:33:00,
2013-07-04 22:43:00,71.0,45.0,27.77,NW,310,19.0,35.0,40,0.00,,,0.00,,2013-07-05 05:43:00,
2013-07-04 22:52:00,71.0,45.0,27.76,NW,326,19.0,34.0,40,0.00,,,0.00,,2013-07-05 05:52:00,
2013-07-04 23:01:00,70.0,45.0,27.75,NW,310,19.0,36.0,41,0.00,,,0.00,,2013-07-05 06:01:00,
2013-07-04 23:12:00,71.0,46.0,27.82,WNW,287,24.0,35.0,41,0.00,,,0.00,,2013-07-05 06:12:00,
2013-07-04 23:23:00,70.0,46.0,27.75,NW,326,21.0,42.0,42,0.00,,,0.00,,2013-07-05 06:23:00,
2013-07-04 23:34:00,69.0,45.0,27.77,NW,305,21.0,36.0,42,0.00,,,0.00,,2013-07-05 06:34:00,
2013-07-04 23:43:00,70.0,46.0,27.82,WNW,298,20.0,35.0,42,0.00,,,0.00,,2013-07-05 06:43:00,
2013-07-04 23:52:00,69.0,45.0,27.77,WSW,245,19.0,36.0,42,0.00,,,0.00,,2013-07-05 06:52:00,